sensor_id;sensor_type;location;lat;lon;timestamp;P1;durP1;ratioP1;P2;durP2;ratioP2
4650;SDS011;2338;49.602;8.722;2023-04-12T00:02:45;5.70;;;2.50;;
4650;SDS011;2338;49.602;8.722;2023-04-12T00:05:36;5.57;;;2.40;;
4650;SDS011;2338;49.602;8.722;2023-04-12T00:08:21;7.20;;;2.33;;
4650;SDS011;2338;49.602;8.722;2023-04-12T00:11:09;10.40;;;2.37;;
4650;SDS011;2338;49.602;8.722;2023-04-12T00:13:56;7.90;;;2.77;;
4650;SDS011;2338;49.602;8.722;2023-04-12T00:16:42;8.83;;;2.77;;
4650;SDS011;2338;49.602;8.722;2023-04-12T00:19:27;11.17;;;2.77;;
4650;SDS011;2338;49.602;8.722;2023-04-12T00:22:14;4.70;;;2.80;;
4650;SDS011;2338;49.602;8.722;2023-04-12T00:24:59;6.67;;;3.70;;
4650;SDS011;2338;49.602;8.722;2023-04-12T00:27:45;11.40;;;6.40;;
4650;SDS011;2338;49.602;8.722;2023-04-12T00:30:32;10.47;;;5.00;;
4650;SDS011;2338;49.602;8.722;2023-04-12T00:33:18;11.23;;;6.80;;
4650;SDS011;2338;49.602;8.722;2023-04-12T00:36:04;12.83;;;5.93;;
4650;SDS011;2338;49.602;8.722;2023-04-12T00:38:50;8.20;;;5.60;;
4650;SDS011;2338;49.602;8.722;2023-04-12T00:41:36;6.80;;;3.70;;
4650;SDS011;2338;49.602;8.722;2023-04-12T00:44:21;10.30;;;3.93;;
4650;SDS011;2338;49.602;8.722;2023-04-12T00:47:08;9.10;;;2.83;;
4650;SDS011;2338;49.602;8.722;2023-04-12T00:49:54;5.97;;;4.00;;
4650;SDS011;2338;49.602;8.722;2023-04-12T00:52:40;11.03;;;5.07;;
4650;SDS011;2338;49.602;8.722;2023-04-12T00:55:26;12.13;;;5.03;;
4650;SDS011;2338;49.602;8.722;2023-04-12T00:58:12;7.40;;;4.70;;
4650;SDS011;2338;49.602;8.722;2023-04-12T01:00:59;8.87;;;5.07;;
4650;SDS011;2338;49.602;8.722;2023-04-12T01:03:47;11.10;;;5.67;;
4650;SDS011;2338;49.602;8.722;2023-04-12T01:06:40;10.37;;;4.43;;
4650;SDS011;2338;49.602;8.722;2023-04-12T01:09:40;15.70;;;4.20;;
4650;SDS011;2338;49.602;8.722;2023-04-12T01:12:35;10.80;;;4.30;;
4650;SDS011;2338;49.602;8.722;2023-04-12T01:15:25;5.50;;;3.30;;
4650;SDS011;2338;49.602;8.722;2023-04-12T01:18:15;21.13;;;3.60;;
4650;SDS011;2338;49.602;8.722;2023-04-12T01:21:07;5.87;;;2.73;;
4650;SDS011;2338;49.602;8.722;2023-04-12T01:24:00;7.70;;;2.33;;
4650;SDS011;2338;49.602;8.722;2023-04-12T01:26:56;8.20;;;2.50;;
4650;SDS011;2338;49.602;8.722;2023-04-12T01:29:46;7.40;;;2.57;;
4650;SDS011;2338;49.602;8.722;2023-04-12T01:32:34;7.07;;;2.20;;
4650;SDS011;2338;49.602;8.722;2023-04-12T01:35:23;6.33;;;2.20;;
4650;SDS011;2338;49.602;8.722;2023-04-12T01:38:11;5.60;;;2.40;;
4650;SDS011;2338;49.602;8.722;2023-04-12T01:40:57;7.40;;;2.30;;
4650;SDS011;2338;49.602;8.722;2023-04-12T01:43:44;3.97;;;2.10;;
4650;SDS011;2338;49.602;8.722;2023-04-12T01:46:32;12.20;;;2.80;;
4650;SDS011;2338;49.602;8.722;2023-04-12T01:49:20;4.73;;;2.00;;
4650;SDS011;2338;49.602;8.722;2023-04-12T01:52:11;9.93;;;2.63;;
4650;SDS011;2338;49.602;8.722;2023-04-12T01:55:01;10.20;;;2.60;;
4650;SDS011;2338;49.602;8.722;2023-04-12T01:57:49;5.20;;;2.10;;
4650;SDS011;2338;49.602;8.722;2023-04-12T02:00:37;7.90;;;2.50;;
4650;SDS011;2338;49.602;8.722;2023-04-12T02:03:27;6.83;;;2.80;;
4650;SDS011;2338;49.602;8.722;2023-04-12T02:06:14;11.93;;;2.87;;
4650;SDS011;2338;49.602;8.722;2023-04-12T02:09:03;6.33;;;3.13;;
4650;SDS011;2338;49.602;8.722;2023-04-12T02:11:49;4.93;;;2.90;;
4650;SDS011;2338;49.602;8.722;2023-04-12T02:14:35;5.93;;;2.37;;
4650;SDS011;2338;49.602;8.722;2023-04-12T02:17:21;9.93;;;2.70;;
4650;SDS011;2338;49.602;8.722;2023-04-12T02:20:09;12.07;;;2.73;;
4650;SDS011;2338;49.602;8.722;2023-04-12T02:22:55;7.30;;;2.47;;
4650;SDS011;2338;49.602;8.722;2023-04-12T02:25:42;5.57;;;2.80;;
4650;SDS011;2338;49.602;8.722;2023-04-12T02:28:29;8.30;;;3.20;;
4650;SDS011;2338;49.602;8.722;2023-04-12T02:31:17;4.80;;;2.70;;
4650;SDS011;2338;49.602;8.722;2023-04-12T02:34:03;4.90;;;2.73;;
4650;SDS011;2338;49.602;8.722;2023-04-12T02:36:50;11.20;;;3.20;;
4650;SDS011;2338;49.602;8.722;2023-04-12T02:39:36;6.50;;;3.03;;
4650;SDS011;2338;49.602;8.722;2023-04-12T02:42:21;6.20;;;3.07;;
4650;SDS011;2338;49.602;8.722;2023-04-12T02:45:07;5.80;;;2.47;;
4650;SDS011;2338;49.602;8.722;2023-04-12T02:47:53;4.97;;;2.80;;
4650;SDS011;2338;49.602;8.722;2023-04-12T02:50:39;7.13;;;3.00;;
4650;SDS011;2338;49.602;8.722;2023-04-12T02:53:26;6.03;;;3.10;;
4650;SDS011;2338;49.602;8.722;2023-04-12T02:56:12;7.10;;;2.57;;
4650;SDS011;2338;49.602;8.722;2023-04-12T02:58:58;6.30;;;2.93;;
4650;SDS011;2338;49.602;8.722;2023-04-12T03:01:44;6.43;;;2.27;;
4650;SDS011;2338;49.602;8.722;2023-04-12T03:04:30;4.03;;;2.23;;
4650;SDS011;2338;49.602;8.722;2023-04-12T03:07:16;6.07;;;2.20;;
4650;SDS011;2338;49.602;8.722;2023-04-12T03:10:04;6.10;;;2.53;;
4650;SDS011;2338;49.602;8.722;2023-04-12T03:12:50;4.87;;;2.13;;
4650;SDS011;2338;49.602;8.722;2023-04-12T03:15:36;6.13;;;2.70;;
4650;SDS011;2338;49.602;8.722;2023-04-12T03:18:22;4.03;;;2.50;;
4650;SDS011;2338;49.602;8.722;2023-04-12T03:21:07;5.83;;;1.93;;
4650;SDS011;2338;49.602;8.722;2023-04-12T03:23:54;3.90;;;2.57;;
4650;SDS011;2338;49.602;8.722;2023-04-12T03:26:41;4.10;;;1.90;;
4650;SDS011;2338;49.602;8.722;2023-04-12T03:29:27;3.90;;;2.40;;
4650;SDS011;2338;49.602;8.722;2023-04-12T03:32:13;4.60;;;2.10;;
4650;SDS011;2338;49.602;8.722;2023-04-12T03:34:59;4.97;;;1.70;;
4650;SDS011;2338;49.602;8.722;2023-04-12T03:37:44;3.00;;;1.63;;
4650;SDS011;2338;49.602;8.722;2023-04-12T03:40:31;7.63;;;2.07;;
4650;SDS011;2338;49.602;8.722;2023-04-12T03:43:18;11.20;;;2.43;;
4650;SDS011;2338;49.602;8.722;2023-04-12T03:46:05;5.43;;;2.33;;
4650;SDS011;2338;49.602;8.722;2023-04-12T03:48:51;3.50;;;1.93;;
4650;SDS011;2338;49.602;8.722;2023-04-12T03:51:36;3.80;;;2.33;;
4650;SDS011;2338;49.602;8.722;2023-04-12T03:54:25;3.17;;;1.97;;
4650;SDS011;2338;49.602;8.722;2023-04-12T03:57:10;4.23;;;2.40;;
4650;SDS011;2338;49.602;8.722;2023-04-12T03:59:57;6.33;;;2.33;;
4650;SDS011;2338;49.602;8.722;2023-04-12T04:02:43;4.13;;;1.87;;
4650;SDS011;2338;49.602;8.722;2023-04-12T04:05:29;5.33;;;1.80;;
4650;SDS011;2338;49.602;8.722;2023-04-12T04:08:15;5.63;;;1.60;;
4650;SDS011;2338;49.602;8.722;2023-04-12T04:11:01;4.60;;;2.10;;
4650;SDS011;2338;49.602;8.722;2023-04-12T04:13:47;6.17;;;2.30;;
4650;SDS011;2338;49.602;8.722;2023-04-12T04:16:34;3.40;;;1.87;;
4650;SDS011;2338;49.602;8.722;2023-04-12T04:19:20;4.73;;;2.20;;
4650;SDS011;2338;49.602;8.722;2023-04-12T04:22:05;4.23;;;2.10;;
4650;SDS011;2338;49.602;8.722;2023-04-12T04:24:52;3.97;;;1.70;;
4650;SDS011;2338;49.602;8.722;2023-04-12T04:27:38;7.67;;;2.20;;
4650;SDS011;2338;49.602;8.722;2023-04-12T04:30:27;5.10;;;1.80;;
4650;SDS011;2338;49.602;8.722;2023-04-12T04:33:14;5.87;;;2.00;;
4650;SDS011;2338;49.602;8.722;2023-04-12T04:36:01;4.93;;;2.80;;
4650;SDS011;2338;49.602;8.722;2023-04-12T04:38:48;2.73;;;1.40;;
4650;SDS011;2338;49.602;8.722;2023-04-12T04:41:33;3.60;;;1.73;;
4650;SDS011;2338;49.602;8.722;2023-04-12T04:44:22;8.47;;;3.10;;
4650;SDS011;2338;49.602;8.722;2023-04-12T04:47:08;10.53;;;2.20;;
4650;SDS011;2338;49.602;8.722;2023-04-12T04:49:56;5.80;;;1.87;;
4650;SDS011;2338;49.602;8.722;2023-04-12T04:52:43;5.50;;;1.80;;
4650;SDS011;2338;49.602;8.722;2023-04-12T04:55:31;9.10;;;1.83;;
4650;SDS011;2338;49.602;8.722;2023-04-12T04:58:16;3.67;;;2.20;;
4650;SDS011;2338;49.602;8.722;2023-04-12T05:01:02;2.20;;;1.60;;
4650;SDS011;2338;49.602;8.722;2023-04-12T05:03:48;4.50;;;1.87;;
4650;SDS011;2338;49.602;8.722;2023-04-12T05:06:36;3.63;;;1.77;;
4650;SDS011;2338;49.602;8.722;2023-04-12T05:09:21;3.27;;;1.70;;
4650;SDS011;2338;49.602;8.722;2023-04-12T05:12:07;2.77;;;1.40;;
4650;SDS011;2338;49.602;8.722;2023-04-12T05:14:53;4.40;;;2.00;;
4650;SDS011;2338;49.602;8.722;2023-04-12T05:17:39;8.90;;;1.60;;
4650;SDS011;2338;49.602;8.722;2023-04-12T05:20:25;6.33;;;1.60;;
4650;SDS011;2338;49.602;8.722;2023-04-12T05:23:12;3.17;;;1.63;;
4650;SDS011;2338;49.602;8.722;2023-04-12T05:25:58;2.47;;;1.50;;
4650;SDS011;2338;49.602;8.722;2023-04-12T05:28:44;4.57;;;1.53;;
4650;SDS011;2338;49.602;8.722;2023-04-12T05:31:30;4.40;;;1.70;;
4650;SDS011;2338;49.602;8.722;2023-04-12T05:34:16;3.07;;;1.90;;
4650;SDS011;2338;49.602;8.722;2023-04-12T05:37:02;6.40;;;1.50;;
4650;SDS011;2338;49.602;8.722;2023-04-12T05:39:49;3.10;;;1.40;;
4650;SDS011;2338;49.602;8.722;2023-04-12T05:42:35;3.90;;;1.57;;
4650;SDS011;2338;49.602;8.722;2023-04-12T05:45:20;3.20;;;1.33;;
4650;SDS011;2338;49.602;8.722;2023-04-12T05:48:06;3.63;;;1.47;;
4650;SDS011;2338;49.602;8.722;2023-04-12T05:50:52;4.33;;;1.53;;
4650;SDS011;2338;49.602;8.722;2023-04-12T05:53:38;3.23;;;1.60;;
4650;SDS011;2338;49.602;8.722;2023-04-12T05:56:26;5.10;;;1.43;;
4650;SDS011;2338;49.602;8.722;2023-04-12T05:59:12;3.60;;;1.50;;
4650;SDS011;2338;49.602;8.722;2023-04-12T06:01:57;3.50;;;1.73;;
4650;SDS011;2338;49.602;8.722;2023-04-12T06:04:44;6.90;;;2.00;;
4650;SDS011;2338;49.602;8.722;2023-04-12T06:07:31;2.80;;;1.70;;
4650;SDS011;2338;49.602;8.722;2023-04-12T06:10:17;3.27;;;1.67;;
4650;SDS011;2338;49.602;8.722;2023-04-12T06:13:04;3.20;;;1.80;;
4650;SDS011;2338;49.602;8.722;2023-04-12T06:15:49;3.70;;;1.77;;
4650;SDS011;2338;49.602;8.722;2023-04-12T06:18:35;3.10;;;1.77;;
4650;SDS011;2338;49.602;8.722;2023-04-12T06:21:21;2.73;;;1.37;;
4650;SDS011;2338;49.602;8.722;2023-04-12T06:24:06;2.37;;;1.60;;
4650;SDS011;2338;49.602;8.722;2023-04-12T06:26:52;3.60;;;1.77;;
4650;SDS011;2338;49.602;8.722;2023-04-12T06:29:40;2.90;;;1.60;;
4650;SDS011;2338;49.602;8.722;2023-04-12T06:32:25;4.23;;;2.13;;
4650;SDS011;2338;49.602;8.722;2023-04-12T06:35:11;7.33;;;1.77;;
4650;SDS011;2338;49.602;8.722;2023-04-12T06:37:57;2.47;;;1.60;;
4650;SDS011;2338;49.602;8.722;2023-04-12T06:40:43;2.80;;;1.70;;
4650;SDS011;2338;49.602;8.722;2023-04-12T06:43:28;3.37;;;1.80;;
4650;SDS011;2338;49.602;8.722;2023-04-12T06:46:15;4.60;;;2.10;;
4650;SDS011;2338;49.602;8.722;2023-04-12T06:49:09;2.60;;;1.80;;
4650;SDS011;2338;49.602;8.722;2023-04-12T06:51:55;2.53;;;1.77;;
4650;SDS011;2338;49.602;8.722;2023-04-12T06:54:41;3.70;;;2.07;;
4650;SDS011;2338;49.602;8.722;2023-04-12T06:57:26;4.63;;;2.37;;
4650;SDS011;2338;49.602;8.722;2023-04-12T07:00:12;4.53;;;2.33;;
4650;SDS011;2338;49.602;8.722;2023-04-12T07:03:00;3.80;;;1.97;;
4650;SDS011;2338;49.602;8.722;2023-04-12T07:05:46;2.00;;;1.43;;
4650;SDS011;2338;49.602;8.722;2023-04-12T07:08:32;4.53;;;2.17;;
4650;SDS011;2338;49.602;8.722;2023-04-12T07:11:18;2.33;;;1.93;;
4650;SDS011;2338;49.602;8.722;2023-04-12T07:14:05;4.83;;;1.77;;
4650;SDS011;2338;49.602;8.722;2023-04-12T07:16:50;3.10;;;1.80;;
4650;SDS011;2338;49.602;8.722;2023-04-12T07:19:38;5.60;;;2.63;;
4650;SDS011;2338;49.602;8.722;2023-04-12T07:22:24;3.67;;;2.00;;
4650;SDS011;2338;49.602;8.722;2023-04-12T07:25:10;6.00;;;2.90;;
4650;SDS011;2338;49.602;8.722;2023-04-12T07:27:56;3.13;;;1.67;;
4650;SDS011;2338;49.602;8.722;2023-04-12T07:30:41;3.37;;;2.10;;
4650;SDS011;2338;49.602;8.722;2023-04-12T07:33:27;6.30;;;3.50;;
4650;SDS011;2338;49.602;8.722;2023-04-12T07:36:15;5.70;;;2.80;;
4650;SDS011;2338;49.602;8.722;2023-04-12T07:39:04;7.43;;;3.00;;
4650;SDS011;2338;49.602;8.722;2023-04-12T07:41:49;2.67;;;1.90;;
4650;SDS011;2338;49.602;8.722;2023-04-12T07:44:35;2.77;;;1.87;;
4650;SDS011;2338;49.602;8.722;2023-04-12T07:47:20;4.47;;;1.57;;
4650;SDS011;2338;49.602;8.722;2023-04-12T07:50:07;2.67;;;1.60;;
4650;SDS011;2338;49.602;8.722;2023-04-12T07:52:56;3.00;;;1.60;;
4650;SDS011;2338;49.602;8.722;2023-04-12T07:56:01;2.87;;;1.40;;
4650;SDS011;2338;49.602;8.722;2023-04-12T07:58:48;2.90;;;1.47;;
4650;SDS011;2338;49.602;8.722;2023-04-12T08:01:34;4.90;;;2.00;;
4650;SDS011;2338;49.602;8.722;2023-04-12T08:04:20;3.20;;;1.50;;
4650;SDS011;2338;49.602;8.722;2023-04-12T08:07:05;3.30;;;1.50;;
4650;SDS011;2338;49.602;8.722;2023-04-12T08:09:52;3.00;;;1.80;;
4650;SDS011;2338;49.602;8.722;2023-04-12T08:12:38;2.30;;;1.37;;
4650;SDS011;2338;49.602;8.722;2023-04-12T08:15:23;4.90;;;2.07;;
4650;SDS011;2338;49.602;8.722;2023-04-12T08:18:09;7.80;;;2.27;;
4650;SDS011;2338;49.602;8.722;2023-04-12T08:20:55;4.40;;;1.73;;
4650;SDS011;2338;49.602;8.722;2023-04-12T08:23:42;3.73;;;1.97;;
4650;SDS011;2338;49.602;8.722;2023-04-12T08:26:29;2.80;;;1.97;;
4650;SDS011;2338;49.602;8.722;2023-04-12T08:29:14;4.07;;;2.37;;
4650;SDS011;2338;49.602;8.722;2023-04-12T08:32:01;8.27;;;1.80;;
4650;SDS011;2338;49.602;8.722;2023-04-12T08:34:47;4.00;;;1.87;;
4650;SDS011;2338;49.602;8.722;2023-04-12T08:37:33;2.30;;;1.57;;
4650;SDS011;2338;49.602;8.722;2023-04-12T08:40:19;2.73;;;1.57;;
4650;SDS011;2338;49.602;8.722;2023-04-12T08:43:06;2.90;;;1.70;;
4650;SDS011;2338;49.602;8.722;2023-04-12T08:45:52;2.80;;;1.63;;
4650;SDS011;2338;49.602;8.722;2023-04-12T08:48:40;3.60;;;1.90;;
4650;SDS011;2338;49.602;8.722;2023-04-12T08:51:28;2.93;;;1.87;;
4650;SDS011;2338;49.602;8.722;2023-04-12T08:54:16;3.07;;;1.83;;
4650;SDS011;2338;49.602;8.722;2023-04-12T08:57:02;8.30;;;2.03;;
4650;SDS011;2338;49.602;8.722;2023-04-12T08:59:50;3.07;;;2.00;;
4650;SDS011;2338;49.602;8.722;2023-04-12T09:02:37;3.30;;;1.97;;
4650;SDS011;2338;49.602;8.722;2023-04-12T09:05:27;4.13;;;2.23;;
4650;SDS011;2338;49.602;8.722;2023-04-12T09:08:13;5.97;;;2.47;;
4650;SDS011;2338;49.602;8.722;2023-04-12T09:11:00;3.37;;;1.73;;
4650;SDS011;2338;49.602;8.722;2023-04-12T09:13:45;3.60;;;2.40;;
4650;SDS011;2338;49.602;8.722;2023-04-12T09:16:36;4.40;;;2.00;;
4650;SDS011;2338;49.602;8.722;2023-04-12T09:19:29;6.20;;;2.40;;
4650;SDS011;2338;49.602;8.722;2023-04-12T09:22:16;3.67;;;2.43;;
4650;SDS011;2338;49.602;8.722;2023-04-12T09:25:02;6.27;;;2.37;;
4650;SDS011;2338;49.602;8.722;2023-04-12T09:27:48;5.80;;;2.17;;
4650;SDS011;2338;49.602;8.722;2023-04-12T09:30:39;4.70;;;2.20;;
4650;SDS011;2338;49.602;8.722;2023-04-12T09:33:33;7.60;;;2.53;;
4650;SDS011;2338;49.602;8.722;2023-04-12T09:36:20;6.20;;;2.53;;
4650;SDS011;2338;49.602;8.722;2023-04-12T09:39:06;13.43;;;3.10;;
4650;SDS011;2338;49.602;8.722;2023-04-12T09:42:02;7.73;;;2.67;;
4650;SDS011;2338;49.602;8.722;2023-04-12T09:44:48;7.43;;;2.40;;
4650;SDS011;2338;49.602;8.722;2023-04-12T09:47:37;7.30;;;2.40;;
4650;SDS011;2338;49.602;8.722;2023-04-12T09:50:25;10.53;;;3.03;;
4650;SDS011;2338;49.602;8.722;2023-04-12T09:53:14;7.97;;;2.90;;
4650;SDS011;2338;49.602;8.722;2023-04-12T09:56:01;4.73;;;2.60;;
4650;SDS011;2338;49.602;8.722;2023-04-12T09:58:48;5.33;;;2.40;;
4650;SDS011;2338;49.602;8.722;2023-04-12T10:01:37;6.83;;;3.90;;
4650;SDS011;2338;49.602;8.722;2023-04-12T10:04:23;7.53;;;2.50;;
4650;SDS011;2338;49.602;8.722;2023-04-12T10:07:11;5.80;;;2.53;;
4650;SDS011;2338;49.602;8.722;2023-04-12T10:09:57;7.17;;;2.63;;
4650;SDS011;2338;49.602;8.722;2023-04-12T10:12:45;7.23;;;2.73;;
4650;SDS011;2338;49.602;8.722;2023-04-12T10:15:32;5.00;;;2.70;;
4650;SDS011;2338;49.602;8.722;2023-04-12T10:18:19;8.90;;;3.30;;
4650;SDS011;2338;49.602;8.722;2023-04-12T10:21:07;5.73;;;2.50;;
4650;SDS011;2338;49.602;8.722;2023-04-12T10:23:55;4.77;;;2.70;;
4650;SDS011;2338;49.602;8.722;2023-04-12T10:26:41;7.10;;;2.70;;
4650;SDS011;2338;49.602;8.722;2023-04-12T10:29:28;6.53;;;2.97;;
4650;SDS011;2338;49.602;8.722;2023-04-12T10:32:19;5.00;;;2.80;;
4650;SDS011;2338;49.602;8.722;2023-04-12T10:35:05;4.73;;;2.67;;
4650;SDS011;2338;49.602;8.722;2023-04-12T10:37:57;5.97;;;3.10;;
4650;SDS011;2338;49.602;8.722;2023-04-12T10:43:52;9.40;;;3.40;;
4650;SDS011;2338;49.602;8.722;2023-04-12T10:47:10;5.70;;;3.07;;
4650;SDS011;2338;49.602;8.722;2023-04-12T10:53:20;6.50;;;3.80;;
4650;SDS011;2338;49.602;8.722;2023-04-12T10:59:24;11.03;;;3.77;;
4650;SDS011;2338;49.602;8.722;2023-04-12T11:02:10;10.73;;;2.90;;
4650;SDS011;2338;49.602;8.722;2023-04-12T11:05:06;7.20;;;3.00;;
4650;SDS011;2338;49.602;8.722;2023-04-12T11:07:52;9.43;;;2.97;;
4650;SDS011;2338;49.602;8.722;2023-04-12T11:10:38;9.50;;;3.00;;
4650;SDS011;2338;49.602;8.722;2023-04-12T11:13:26;5.20;;;3.27;;
4650;SDS011;2338;49.602;8.722;2023-04-12T11:16:13;15.13;;;3.40;;
4650;SDS011;2338;49.602;8.722;2023-04-12T11:18:59;5.90;;;2.80;;
4650;SDS011;2338;49.602;8.722;2023-04-12T11:21:44;4.77;;;2.97;;
4650;SDS011;2338;49.602;8.722;2023-04-12T11:24:31;9.27;;;3.27;;
4650;SDS011;2338;49.602;8.722;2023-04-12T11:27:17;7.30;;;2.90;;
4650;SDS011;2338;49.602;8.722;2023-04-12T11:30:06;6.07;;;2.53;;
4650;SDS011;2338;49.602;8.722;2023-04-12T11:32:53;6.83;;;3.37;;
4650;SDS011;2338;49.602;8.722;2023-04-12T11:35:39;6.27;;;3.10;;
4650;SDS011;2338;49.602;8.722;2023-04-12T11:38:27;7.20;;;3.23;;
4650;SDS011;2338;49.602;8.722;2023-04-12T11:41:13;6.10;;;3.23;;
4650;SDS011;2338;49.602;8.722;2023-04-12T11:43:59;5.90;;;3.07;;
4650;SDS011;2338;49.602;8.722;2023-04-12T11:46:46;5.77;;;2.87;;
4650;SDS011;2338;49.602;8.722;2023-04-12T11:49:32;11.43;;;3.73;;
4650;SDS011;2338;49.602;8.722;2023-04-12T11:52:18;4.23;;;2.30;;
4650;SDS011;2338;49.602;8.722;2023-04-12T11:55:05;8.80;;;2.90;;
4650;SDS011;2338;49.602;8.722;2023-04-12T11:57:53;4.47;;;2.87;;
4650;SDS011;2338;49.602;8.722;2023-04-12T12:00:39;9.80;;;2.83;;
4650;SDS011;2338;49.602;8.722;2023-04-12T12:03:27;7.57;;;2.63;;
4650;SDS011;2338;49.602;8.722;2023-04-12T12:06:13;3.63;;;2.30;;
4650;SDS011;2338;49.602;8.722;2023-04-12T12:08:59;5.90;;;3.30;;
4650;SDS011;2338;49.602;8.722;2023-04-12T12:11:46;5.27;;;2.73;;
4650;SDS011;2338;49.602;8.722;2023-04-12T12:14:32;5.83;;;2.83;;
4650;SDS011;2338;49.602;8.722;2023-04-12T12:17:19;9.30;;;3.40;;
4650;SDS011;2338;49.602;8.722;2023-04-12T12:20:07;10.83;;;3.30;;
4650;SDS011;2338;49.602;8.722;2023-04-12T12:23:04;5.03;;;2.33;;
4650;SDS011;2338;49.602;8.722;2023-04-12T12:25:49;4.77;;;2.50;;
4650;SDS011;2338;49.602;8.722;2023-04-12T12:28:35;6.40;;;2.57;;
4650;SDS011;2338;49.602;8.722;2023-04-12T12:31:22;3.13;;;2.53;;
4650;SDS011;2338;49.602;8.722;2023-04-12T12:34:10;4.50;;;2.70;;
4650;SDS011;2338;49.602;8.722;2023-04-12T12:36:58;3.70;;;2.47;;
4650;SDS011;2338;49.602;8.722;2023-04-12T12:39:58;7.50;;;3.00;;
4650;SDS011;2338;49.602;8.722;2023-04-12T12:42:54;6.77;;;4.70;;
4650;SDS011;2338;49.602;8.722;2023-04-12T12:45:40;5.73;;;3.07;;
4650;SDS011;2338;49.602;8.722;2023-04-12T12:48:26;6.00;;;3.00;;
4650;SDS011;2338;49.602;8.722;2023-04-12T12:51:11;3.90;;;2.60;;
4650;SDS011;2338;49.602;8.722;2023-04-12T12:54:01;6.60;;;2.67;;
4650;SDS011;2338;49.602;8.722;2023-04-12T12:56:47;7.23;;;2.47;;
4650;SDS011;2338;49.602;8.722;2023-04-12T12:59:33;5.23;;;2.50;;
4650;SDS011;2338;49.602;8.722;2023-04-12T13:02:18;7.30;;;2.80;;
4650;SDS011;2338;49.602;8.722;2023-04-12T13:05:05;4.37;;;2.60;;
4650;SDS011;2338;49.602;8.722;2023-04-12T13:07:50;4.80;;;2.80;;
4650;SDS011;2338;49.602;8.722;2023-04-12T13:10:37;6.97;;;3.10;;
4650;SDS011;2338;49.602;8.722;2023-04-12T13:13:23;8.40;;;2.70;;
4650;SDS011;2338;49.602;8.722;2023-04-12T13:16:09;4.37;;;2.93;;
4650;SDS011;2338;49.602;8.722;2023-04-12T13:18:54;14.20;;;2.90;;
4650;SDS011;2338;49.602;8.722;2023-04-12T13:21:40;9.30;;;3.13;;
4650;SDS011;2338;49.602;8.722;2023-04-12T13:24:26;5.73;;;3.10;;
4650;SDS011;2338;49.602;8.722;2023-04-12T13:27:13;8.03;;;3.10;;
4650;SDS011;2338;49.602;8.722;2023-04-12T13:29:58;7.03;;;2.93;;
4650;SDS011;2338;49.602;8.722;2023-04-12T13:32:44;6.10;;;3.13;;
4650;SDS011;2338;49.602;8.722;2023-04-12T13:35:30;6.30;;;2.53;;
4650;SDS011;2338;49.602;8.722;2023-04-12T13:38:16;4.73;;;2.47;;
4650;SDS011;2338;49.602;8.722;2023-04-12T13:41:01;5.97;;;2.93;;
4650;SDS011;2338;49.602;8.722;2023-04-12T13:43:49;3.20;;;2.57;;
4650;SDS011;2338;49.602;8.722;2023-04-12T13:46:34;3.90;;;2.70;;
4650;SDS011;2338;49.602;8.722;2023-04-12T13:49:20;7.20;;;2.63;;
4650;SDS011;2338;49.602;8.722;2023-04-12T13:52:05;8.97;;;2.87;;
4650;SDS011;2338;49.602;8.722;2023-04-12T13:54:51;3.87;;;2.30;;
4650;SDS011;2338;49.602;8.722;2023-04-12T13:57:37;4.43;;;2.47;;
4650;SDS011;2338;49.602;8.722;2023-04-12T14:00:24;6.93;;;2.73;;
4650;SDS011;2338;49.602;8.722;2023-04-12T14:03:10;3.93;;;2.70;;
4650;SDS011;2338;49.602;8.722;2023-04-12T14:05:56;4.97;;;2.97;;
4650;SDS011;2338;49.602;8.722;2023-04-12T14:08:43;6.50;;;2.93;;
4650;SDS011;2338;49.602;8.722;2023-04-12T14:11:28;9.80;;;3.63;;
4650;SDS011;2338;49.602;8.722;2023-04-12T14:14:14;5.43;;;3.20;;
4650;SDS011;2338;49.602;8.722;2023-04-12T14:17:01;4.27;;;2.67;;
4650;SDS011;2338;49.602;8.722;2023-04-12T14:19:47;4.60;;;2.87;;
4650;SDS011;2338;49.602;8.722;2023-04-12T14:22:32;5.30;;;2.77;;
4650;SDS011;2338;49.602;8.722;2023-04-12T14:25:18;5.60;;;2.90;;
4650;SDS011;2338;49.602;8.722;2023-04-12T14:28:04;6.37;;;3.50;;
4650;SDS011;2338;49.602;8.722;2023-04-12T14:30:49;9.03;;;3.60;;
4650;SDS011;2338;49.602;8.722;2023-04-12T14:33:36;9.80;;;3.10;;
4650;SDS011;2338;49.602;8.722;2023-04-12T14:36:22;15.50;;;2.90;;
4650;SDS011;2338;49.602;8.722;2023-04-12T14:39:09;7.10;;;2.43;;
4650;SDS011;2338;49.602;8.722;2023-04-12T14:41:54;5.27;;;2.30;;
4650;SDS011;2338;49.602;8.722;2023-04-12T14:44:40;5.73;;;2.67;;
4650;SDS011;2338;49.602;8.722;2023-04-12T14:47:26;5.80;;;2.70;;
4650;SDS011;2338;49.602;8.722;2023-04-12T14:50:13;7.27;;;3.63;;
4650;SDS011;2338;49.602;8.722;2023-04-12T14:52:59;3.83;;;2.63;;
4650;SDS011;2338;49.602;8.722;2023-04-12T14:55:44;5.70;;;3.03;;
4650;SDS011;2338;49.602;8.722;2023-04-12T14:58:32;7.90;;;2.73;;
4650;SDS011;2338;49.602;8.722;2023-04-12T15:01:19;8.70;;;2.77;;
4650;SDS011;2338;49.602;8.722;2023-04-12T15:04:06;5.50;;;2.40;;
4650;SDS011;2338;49.602;8.722;2023-04-12T15:06:53;3.33;;;1.90;;
4650;SDS011;2338;49.602;8.722;2023-04-12T15:09:38;4.03;;;2.50;;
4650;SDS011;2338;49.602;8.722;2023-04-12T15:12:27;6.87;;;2.20;;
4650;SDS011;2338;49.602;8.722;2023-04-12T15:15:12;4.70;;;1.60;;
4650;SDS011;2338;49.602;8.722;2023-04-12T15:17:58;6.13;;;2.40;;
4650;SDS011;2338;49.602;8.722;2023-04-12T15:20:45;3.83;;;1.60;;
4650;SDS011;2338;49.602;8.722;2023-04-12T15:23:32;2.67;;;1.60;;
4650;SDS011;2338;49.602;8.722;2023-04-12T15:26:18;2.47;;;1.80;;
4650;SDS011;2338;49.602;8.722;2023-04-12T15:29:04;3.90;;;2.00;;
4650;SDS011;2338;49.602;8.722;2023-04-12T15:31:50;3.00;;;1.40;;
4650;SDS011;2338;49.602;8.722;2023-04-12T15:34:38;3.10;;;1.70;;
4650;SDS011;2338;49.602;8.722;2023-04-12T15:37:24;3.70;;;1.40;;
4650;SDS011;2338;49.602;8.722;2023-04-12T15:40:12;7.60;;;1.80;;
4650;SDS011;2338;49.602;8.722;2023-04-12T15:42:58;7.20;;;1.80;;
4650;SDS011;2338;49.602;8.722;2023-04-12T15:45:44;9.17;;;2.00;;
4650;SDS011;2338;49.602;8.722;2023-04-12T15:48:29;3.70;;;1.97;;
4650;SDS011;2338;49.602;8.722;2023-04-12T15:51:15;2.27;;;1.10;;
4650;SDS011;2338;49.602;8.722;2023-04-12T15:54:00;2.70;;;1.30;;
4650;SDS011;2338;49.602;8.722;2023-04-12T15:56:48;4.73;;;1.87;;
4650;SDS011;2338;49.602;8.722;2023-04-12T15:59:36;2.07;;;1.30;;
4650;SDS011;2338;49.602;8.722;2023-04-12T16:02:21;5.00;;;1.20;;
4650;SDS011;2338;49.602;8.722;2023-04-12T16:05:08;2.70;;;1.30;;
4650;SDS011;2338;49.602;8.722;2023-04-12T16:07:56;2.13;;;1.20;;
4650;SDS011;2338;49.602;8.722;2023-04-12T16:10:41;1.70;;;1.10;;
4650;SDS011;2338;49.602;8.722;2023-04-12T16:13:28;2.17;;;1.03;;
4650;SDS011;2338;49.602;8.722;2023-04-12T16:16:15;3.40;;;1.30;;
4650;SDS011;2338;49.602;8.722;2023-04-12T16:19:02;4.50;;;1.63;;
4650;SDS011;2338;49.602;8.722;2023-04-12T16:21:47;2.50;;;1.17;;
4650;SDS011;2338;49.602;8.722;2023-04-12T16:24:33;2.43;;;1.17;;
4650;SDS011;2338;49.602;8.722;2023-04-12T16:27:20;2.30;;;1.23;;
4650;SDS011;2338;49.602;8.722;2023-04-12T16:30:07;3.33;;;1.07;;
4650;SDS011;2338;49.602;8.722;2023-04-12T16:32:55;2.30;;;1.10;;
4650;SDS011;2338;49.602;8.722;2023-04-12T16:35:41;2.03;;;1.00;;
4650;SDS011;2338;49.602;8.722;2023-04-12T16:38:27;2.40;;;1.10;;
4650;SDS011;2338;49.602;8.722;2023-04-12T16:41:13;1.57;;;1.00;;
4650;SDS011;2338;49.602;8.722;2023-04-12T16:44:00;5.77;;;0.80;;
4650;SDS011;2338;49.602;8.722;2023-04-12T16:46:47;2.73;;;1.00;;
4650;SDS011;2338;49.602;8.722;2023-04-12T16:49:33;3.93;;;1.30;;
4650;SDS011;2338;49.602;8.722;2023-04-12T16:52:19;2.93;;;1.27;;
4650;SDS011;2338;49.602;8.722;2023-04-12T16:55:05;4.37;;;1.37;;
4650;SDS011;2338;49.602;8.722;2023-04-12T16:57:53;4.60;;;1.10;;
4650;SDS011;2338;49.602;8.722;2023-04-12T17:00:41;2.13;;;1.20;;
4650;SDS011;2338;49.602;8.722;2023-04-12T17:03:27;3.27;;;1.33;;
4650;SDS011;2338;49.602;8.722;2023-04-12T17:06:14;3.03;;;1.37;;
4650;SDS011;2338;49.602;8.722;2023-04-12T17:09:00;6.90;;;1.50;;
4650;SDS011;2338;49.602;8.722;2023-04-12T17:11:45;3.57;;;2.07;;
4650;SDS011;2338;49.602;8.722;2023-04-12T17:14:31;8.07;;;1.30;;
4650;SDS011;2338;49.602;8.722;2023-04-12T17:17:17;2.73;;;1.57;;
4650;SDS011;2338;49.602;8.722;2023-04-12T17:20:04;1.97;;;1.10;;
4650;SDS011;2338;49.602;8.722;2023-04-12T17:22:54;3.30;;;1.30;;
4650;SDS011;2338;49.602;8.722;2023-04-12T17:25:40;3.90;;;1.47;;
4650;SDS011;2338;49.602;8.722;2023-04-12T17:28:26;4.63;;;1.20;;